Terminal Aerodrome Forecast
Issued by NWS

Home | Current Version | Previous Version | Text Only | Print | Product List | Glossary On
Versions: 1 2 3 4 5 6 7 8 9 10 11 12 13 14 15 16 17 18 19 20 21 22 23 24 25 26
000
FTUS46 KOTX 182329
TAFCOE
TAF
KCOE 182329Z 1900/1924 35004KT P6SM SCT060 OVC070
     FM190300 17006KT P6SM SCT070 OVC100
     FM191800 22012G19KT P6SM VCSH BKN070 OVC100
     FM192200 24014G20KT P6SM VCTS OVC060CB=

USA.gov is the U.S. government's official web portal to all federal, state and local government web resources and services.